createdAt,value
2017-07-22T00:01:56.357Z,12.17
2017-07-22T00:04:23.918Z,12.30
2017-07-22T00:06:51.582Z,12.30
2017-07-22T00:09:19.244Z,11.40
2017-07-22T00:11:46.907Z,11.60
2017-07-22T00:14:14.565Z,13.20
2017-07-22T00:16:42.231Z,11.60
2017-07-22T00:19:09.786Z,11.40
2017-07-22T00:21:37.442Z,12.20
2017-07-22T00:24:05.106Z,12.10
2017-07-22T00:26:32.765Z,11.50
2017-07-22T00:29:00.426Z,12.40
2017-07-22T00:31:28.095Z,11.87
2017-07-22T00:33:55.751Z,12.30
2017-07-22T00:36:23.325Z,11.57
2017-07-22T00:38:50.969Z,13.60
2017-07-22T00:41:18.522Z,12.20
2017-07-22T00:43:46.089Z,12.57
2017-07-22T00:46:13.750Z,11.73
2017-07-22T00:48:41.326Z,11.80
2017-07-22T00:51:08.886Z,11.90
2017-07-22T00:53:36.443Z,12.63
2017-07-22T00:56:04.095Z,13.03
2017-07-22T00:58:31.727Z,12.17
2017-07-22T01:00:59.390Z,12.37
2017-07-22T01:03:26.970Z,12.83
2017-07-22T01:05:54.522Z,12.50
2017-07-22T01:08:22.079Z,12.20
2017-07-22T01:10:49.630Z,13.27
2017-07-22T01:13:17.305Z,13.23
2017-07-22T01:15:44.862Z,13.10
2017-07-22T01:18:12.426Z,14.10
2017-07-22T01:20:39.977Z,14.17
2017-07-22T01:23:07.551Z,14.97
2017-07-22T01:25:35.134Z,13.63
2017-07-22T01:28:03.482Z,16.43
2017-07-22T01:30:31.146Z,14.50
2017-07-22T01:32:58.705Z,13.93
2017-07-22T01:35:26.264Z,15.90
2017-07-22T01:37:53.845Z,15.20
2017-07-22T01:40:22.198Z,15.10
2017-07-22T01:42:49.750Z,17.90
2017-07-22T01:45:17.417Z,16.60
2017-07-22T01:47:44.965Z,14.90
2017-07-22T01:50:12.638Z,14.70
2017-07-22T01:52:40.302Z,15.80
2017-07-22T01:55:07.959Z,16.97
2017-07-22T01:57:35.630Z,16.77
2017-07-22T02:00:03.293Z,15.73
2017-07-22T02:02:30.941Z,16.50
2017-07-22T02:04:58.610Z,16.30
2017-07-22T02:07:26.265Z,14.97
2017-07-22T02:09:53.929Z,17.80
2017-07-22T02:12:21.487Z,15.77
2017-07-22T02:14:49.090Z,16.53
2017-07-22T02:17:16.645Z,18.20
2017-07-22T02:19:44.985Z,18.23
2017-07-22T02:22:12.645Z,17.50
2017-07-22T02:24:40.313Z,16.40
2017-07-22T02:27:08.069Z,16.60
2017-07-22T02:29:35.625Z,19.30
2017-07-22T02:32:03.294Z,17.67
2017-07-22T02:34:30.894Z,17.37
2017-07-22T02:36:58.451Z,18.13
2017-07-22T02:39:26.074Z,19.53
2017-07-22T02:41:53.732Z,18.10
2017-07-22T02:44:21.395Z,18.37
2017-07-22T02:46:48.954Z,19.27
2017-07-22T02:49:16.683Z,19.07
2017-07-22T02:51:44.267Z,18.30
2017-07-22T02:54:11.833Z,19.60
2017-07-22T02:56:39.385Z,17.97
2017-07-22T02:59:06.954Z,18.07
2017-07-22T03:01:34.618Z,18.57
2017-07-22T03:04:02.210Z,18.10
2017-07-22T03:06:30.555Z,18.00
2017-07-22T03:08:58.122Z,18.20
2017-07-22T03:11:25.683Z,18.17
2017-07-22T03:13:53.332Z,19.87
2017-07-22T03:16:20.993Z,20.23
2017-07-22T03:18:48.657Z,20.33
2017-07-22T03:21:16.215Z,18.77
2017-07-22T03:23:43.769Z,20.20
2017-07-22T03:26:11.430Z,19.50
2017-07-22T03:28:39.014Z,20.23
2017-07-22T03:31:07.370Z,20.50
2017-07-22T03:33:35.030Z,19.90
2017-07-22T03:36:02.691Z,18.50
2017-07-22T03:38:30.246Z,18.03
2017-07-22T03:40:57.910Z,18.47
2017-07-22T03:43:25.569Z,19.60
2017-07-22T03:45:53.122Z,19.80
2017-07-22T03:48:20.675Z,19.80
2017-07-22T03:50:48.226Z,20.30
2017-07-22T03:53:15.806Z,20.80
2017-07-22T03:55:43.362Z,18.50
2017-07-22T03:58:10.915Z,20.33
2017-07-22T04:00:38.485Z,22.10
2017-07-22T04:03:06.034Z,22.10
2017-07-22T04:05:33.710Z,19.87
2017-07-22T04:08:01.370Z,19.47
2017-07-22T04:10:29.031Z,20.43
2017-07-22T04:12:56.597Z,22.43
2017-07-22T04:15:24.150Z,22.07
2017-07-22T04:17:51.806Z,20.43
2017-07-22T04:20:19.362Z,22.57
2017-07-22T04:22:46.914Z,21.80
2017-07-22T04:25:14.486Z,21.23
2017-07-22T04:27:42.049Z,20.67
2017-07-22T04:30:09.634Z,20.70
2017-07-22T04:32:37.955Z,21.93
2017-07-22T04:35:05.546Z,21.70
2017-07-22T04:37:33.205Z,22.77
2017-07-22T04:40:00.775Z,21.13
2017-07-22T04:42:28.423Z,22.60
2017-07-22T04:44:56.085Z,23.03
2017-07-22T04:47:23.750Z,22.97
2017-07-22T04:49:51.407Z,23.60
2017-07-22T04:52:19.074Z,23.20
2017-07-22T04:54:46.730Z,26.13
2017-07-22T04:57:14.390Z,26.27
2017-07-22T04:59:41.944Z,25.00
2017-07-22T05:02:09.614Z,24.67
2017-07-22T05:04:37.170Z,26.40
2017-07-22T05:07:04.750Z,25.07
2017-07-22T05:09:33.107Z,27.10
2017-07-22T05:12:00.770Z,27.90
2017-07-22T05:14:28.426Z,26.60
2017-07-22T05:16:56.090Z,26.07
2017-07-22T05:19:23.751Z,27.13
2017-07-22T05:21:51.552Z,24.90
2017-07-22T05:24:19.899Z,24.90
2017-07-22T05:26:47.631Z,25.30
2017-07-22T05:29:15.329Z,24.50
2017-07-22T05:31:42.914Z,24.67
2017-07-22T05:34:10.647Z,23.47
2017-07-22T05:36:38.379Z,21.63
2017-07-22T05:39:06.026Z,20.73
2017-07-22T05:41:33.823Z,23.53
2017-07-22T05:44:01.403Z,20.97
2017-07-22T05:46:29.050Z,23.33
2017-07-22T05:48:56.711Z,22.90
2017-07-22T05:51:24.458Z,22.90
2017-07-22T05:53:52.039Z,20.37
2017-07-22T05:56:19.694Z,19.23
2017-07-22T05:58:47.250Z,20.67
2017-07-22T06:01:14.805Z,20.67
2017-07-22T06:03:42.373Z,19.70
2017-07-22T06:06:09.924Z,19.10
2017-07-22T06:08:37.572Z,18.53
2017-07-22T06:11:05.126Z,19.30
2017-07-22T06:13:32.690Z,17.83
2017-07-22T06:16:00.279Z,19.27
2017-07-22T06:18:27.829Z,19.97
2017-07-22T06:20:55.410Z,20.93
2017-07-22T06:23:22.963Z,19.07
2017-07-22T06:25:50.517Z,18.17
2017-07-22T06:28:18.070Z,17.40
2017-07-22T06:30:45.729Z,18.43
2017-07-22T06:33:13.339Z,17.90
2017-07-22T06:35:40.957Z,18.47
2017-07-22T06:38:08.617Z,19.33
2017-07-22T06:40:36.271Z,17.07
2017-07-22T06:43:03.826Z,18.10
2017-07-22T06:45:31.491Z,16.87
2017-07-22T06:47:59.645Z,16.97
2017-07-22T06:50:27.234Z,16.80
2017-07-22T06:52:54.893Z,15.17
2017-07-22T06:55:22.567Z,17.10
2017-07-22T06:57:51.309Z,13.80
2017-07-22T07:00:19.181Z,15.87
2017-07-22T07:02:46.742Z,14.57
2017-07-22T07:05:14.330Z,14.27
2017-07-22T07:07:41.980Z,14.37
2017-07-22T07:10:09.920Z,13.07
2017-07-22T07:12:37.602Z,14.63
2017-07-22T07:15:05.244Z,14.63
2017-07-22T07:17:33.041Z,12.63
2017-07-22T07:20:00.695Z,16.53
2017-07-22T07:22:28.298Z,12.30
2017-07-22T07:24:55.917Z,12.30
2017-07-22T07:27:23.471Z,12.10
2017-07-22T07:29:52.164Z,11.97
2017-07-22T07:32:19.925Z,11.87
2017-07-22T07:34:47.586Z,11.47
2017-07-22T07:37:15.254Z,11.63
2017-07-22T07:39:42.848Z,11.30
2017-07-22T07:42:10.570Z,9.97
2017-07-22T07:44:38.254Z,11.90
2017-07-22T07:47:06.788Z,11.00
2017-07-22T07:49:34.390Z,11.30
2017-07-22T07:52:02.442Z,11.30
2017-07-22T07:54:30.031Z,10.27
2017-07-22T07:56:57.668Z,11.17
2017-07-22T07:59:25.247Z,10.80
2017-07-22T08:01:53.598Z,8.67
2017-07-22T08:04:21.261Z,10.50
2017-07-22T08:06:49.686Z,9.83
2017-07-22T08:09:17.302Z,9.20
2017-07-22T08:11:44.962Z,9.30
2017-07-22T08:14:12.622Z,9.83
2017-07-22T08:16:40.185Z,9.60
2017-07-22T08:19:07.846Z,10.50
2017-07-22T08:21:35.506Z,9.43
2017-07-22T08:24:03.159Z,10.33
2017-07-22T08:26:30.705Z,9.97
2017-07-22T08:28:58.266Z,15.13
2017-07-22T08:31:25.821Z,10.70
2017-07-22T08:33:53.413Z,10.43
2017-07-22T08:36:20.963Z,9.43
2017-07-22T08:38:48.514Z,9.00
2017-07-22T08:41:16.082Z,8.37
2017-07-22T08:43:43.638Z,8.97
2017-07-22T08:46:11.186Z,9.43
2017-07-22T08:48:38.742Z,9.27
2017-07-22T08:51:06.295Z,9.10
2017-07-22T08:53:33.883Z,9.30
2017-07-22T08:56:01.537Z,11.30
2017-07-22T08:58:29.114Z,9.20
2017-07-22T09:03:30.669Z,9.70
2017-07-22T09:05:58.326Z,9.57
2017-07-22T09:08:25.897Z,9.00
2017-07-22T09:10:53.557Z,8.97
2017-07-22T09:13:21.105Z,8.20
2017-07-22T09:15:48.769Z,8.53
2017-07-22T09:18:16.426Z,7.67
2017-07-22T09:20:43.990Z,8.80
2017-07-22T09:23:11.654Z,9.53
2017-07-22T09:25:39.319Z,9.40
2017-07-22T09:28:06.883Z,10.60
2017-07-22T09:30:35.246Z,9.80
2017-07-22T09:33:02.797Z,9.07
2017-07-22T09:35:30.358Z,12.73
2017-07-22T09:37:57.914Z,10.70
2017-07-22T09:40:25.512Z,12.67
2017-07-22T09:42:53.861Z,9.40
2017-07-22T09:45:21.426Z,8.10
2017-07-22T09:47:49.090Z,8.50
2017-07-22T09:50:16.646Z,9.67
2017-07-22T09:52:44.322Z,10.40
2017-07-22T09:55:12.246Z,11.10
2017-07-22T09:57:39.833Z,10.30
2017-07-22T10:00:07.382Z,6.17
2017-07-22T10:02:35.053Z,6.30
2017-07-22T10:05:02.814Z,6.43
2017-07-22T10:07:30.558Z,7.87
2017-07-22T10:09:58.522Z,6.60
2017-07-22T10:12:26.447Z,7.10
2017-07-22T10:14:54.914Z,7.57
2017-07-22T10:17:22.838Z,6.77
2017-07-22T10:19:50.381Z,8.43
2017-07-22T10:22:17.930Z,9.83
2017-07-22T10:24:45.722Z,6.93
2017-07-22T10:27:14.328Z,6.97
2017-07-22T10:29:41.889Z,6.63
2017-07-22T10:32:09.545Z,6.17
2017-07-22T10:34:37.209Z,7.90
2017-07-22T10:37:04.990Z,7.03
2017-07-22T10:39:32.738Z,6.97
2017-07-22T10:42:00.330Z,7.10
2017-07-22T10:44:28.682Z,9.20
2017-07-22T10:46:56.333Z,8.20
2017-07-22T10:49:23.881Z,7.93
2017-07-22T10:51:51.478Z,7.73
2017-07-22T10:54:19.834Z,7.17
2017-07-22T10:56:47.382Z,7.17
2017-07-22T10:59:14.957Z,7.00
2017-07-22T11:01:42.621Z,8.00
2017-07-22T11:04:10.252Z,7.20
2017-07-22T11:06:37.804Z,7.63
2017-07-22T11:09:05.394Z,7.90
2017-07-22T11:11:32.958Z,7.63
2017-07-22T11:14:00.692Z,7.13
2017-07-22T11:16:28.377Z,8.23
2017-07-22T11:18:55.927Z,7.63
2017-07-22T11:21:23.502Z,7.27
2017-07-22T11:23:51.158Z,6.73
2017-07-22T11:26:18.822Z,21.03
2017-07-22T11:28:46.377Z,26.53
2017-07-22T11:31:14.026Z,7.20
2017-07-22T11:33:41.571Z,8.07
2017-07-22T11:36:09.157Z,6.93
2017-07-22T11:38:36.718Z,7.63
2017-07-22T11:41:04.386Z,6.43
2017-07-22T11:43:31.930Z,8.07
2017-07-22T11:45:59.506Z,7.13
2017-07-22T11:48:27.161Z,7.90
2017-07-22T11:50:54.710Z,6.77
2017-07-22T11:53:22.277Z,6.90
2017-07-22T11:55:49.934Z,7.13
2017-07-22T11:58:17.486Z,7.80
2017-07-22T12:00:45.058Z,6.30
2017-07-22T12:03:12.612Z,6.70
2017-07-22T12:05:40.160Z,7.83
2017-07-22T12:08:07.734Z,8.00
2017-07-22T12:10:35.286Z,7.37
2017-07-22T12:13:02.958Z,6.83
2017-07-22T12:15:30.619Z,6.50
2017-07-22T12:17:58.282Z,7.10
2017-07-22T12:20:25.850Z,5.80
2017-07-22T12:22:53.508Z,5.77
2017-07-22T12:25:21.078Z,5.70
2017-07-22T12:27:48.722Z,6.20
2017-07-22T12:30:16.383Z,6.60
2017-07-22T12:32:44.045Z,5.90
2017-07-22T12:35:11.614Z,6.77
2017-07-22T12:37:39.272Z,6.30
2017-07-22T12:40:06.818Z,6.70
2017-07-22T12:42:34.373Z,6.60
2017-07-22T12:45:01.951Z,7.17
2017-07-22T12:47:29.498Z,6.63
2017-07-22T12:49:57.077Z,6.27
2017-07-22T12:52:24.722Z,6.90
2017-07-22T12:54:52.378Z,6.70
2017-07-22T12:57:19.946Z,6.70
2017-07-22T12:59:47.510Z,6.57
2017-07-22T13:02:15.078Z,6.97
2017-07-22T13:04:42.718Z,5.83
2017-07-22T13:07:10.381Z,6.27
2017-07-22T13:09:37.935Z,6.90
2017-07-22T13:12:05.506Z,8.43
2017-07-22T13:14:33.158Z,7.37
2017-07-22T13:17:00.718Z,5.50
2017-07-22T13:19:28.278Z,5.80
2017-07-22T13:21:55.826Z,5.53
2017-07-22T13:24:23.410Z,6.10
2017-07-22T13:26:51.059Z,10.50
2017-07-22T13:29:18.719Z,6.07
2017-07-22T13:31:46.378Z,5.70
2017-07-22T13:34:13.930Z,6.07
2017-07-22T13:36:41.509Z,4.53
2017-07-22T13:39:09.082Z,4.40
2017-07-22T13:41:37.398Z,4.77
2017-07-22T13:44:04.971Z,4.70
2017-07-22T13:46:32.522Z,4.80
2017-07-22T13:49:00.123Z,5.03
2017-07-22T13:51:27.702Z,4.90
2017-07-22T13:53:56.058Z,5.10
2017-07-22T13:56:23.610Z,4.60
2017-07-22T13:58:51.163Z,4.57
2017-07-22T14:01:18.730Z,4.73
2017-07-22T14:03:46.385Z,4.53
2017-07-22T14:06:13.930Z,4.97
2017-07-22T14:08:41.482Z,5.17
2017-07-22T14:11:09.066Z,4.43
2017-07-22T14:13:36.630Z,5.20
2017-07-22T14:16:04.206Z,4.67
2017-07-22T14:18:31.766Z,5.00
2017-07-22T14:20:59.314Z,5.30
2017-07-22T14:23:26.853Z,5.43
2017-07-22T14:25:54.422Z,5.37
2017-07-22T14:28:21.994Z,4.97
2017-07-22T14:30:49.646Z,5.03
2017-07-22T14:33:17.190Z,4.83
2017-07-22T14:35:44.763Z,5.23
2017-07-22T14:38:12.321Z,5.40
2017-07-22T14:40:39.982Z,6.00
2017-07-22T14:43:07.646Z,4.83
2017-07-22T14:45:35.196Z,5.30
2017-07-22T14:48:02.750Z,5.73
2017-07-22T14:50:30.323Z,6.20
2017-07-22T14:52:57.991Z,6.70
2017-07-22T14:55:25.643Z,6.10
2017-07-22T14:57:53.189Z,6.27
2017-07-22T15:00:20.768Z,5.70
2017-07-22T15:02:48.319Z,6.80
2017-07-22T15:05:15.986Z,6.23
2017-07-22T15:07:43.544Z,6.17
2017-07-22T15:10:11.203Z,5.70
2017-07-22T15:12:38.868Z,9.67
2017-07-22T15:15:06.530Z,7.50
2017-07-22T15:17:34.110Z,7.00
2017-07-22T15:20:02.424Z,7.30
2017-07-22T15:22:29.966Z,6.57
2017-07-22T15:24:57.582Z,6.50
2017-07-22T15:27:25.134Z,6.93
2017-07-22T15:29:52.808Z,7.13
2017-07-22T15:32:20.366Z,6.90
2017-07-22T15:34:48.024Z,7.53
2017-07-22T15:37:15.688Z,7.50
2017-07-22T15:39:43.317Z,7.33
2017-07-22T15:42:10.894Z,7.60
2017-07-22T15:44:38.439Z,7.30
2017-07-22T15:47:06.475Z,7.70
2017-07-22T15:49:34.094Z,7.63
2017-07-22T15:52:01.655Z,8.17
2017-07-22T15:54:29.310Z,7.73
2017-07-22T15:56:56.877Z,8.23
2017-07-22T15:59:24.540Z,8.40
2017-07-22T16:01:52.204Z,8.00
2017-07-22T16:04:20.202Z,8.13
2017-07-22T16:06:48.735Z,7.57
2017-07-22T16:09:16.317Z,7.30
2017-07-22T16:11:43.970Z,8.53
2017-07-22T16:14:11.523Z,7.67
2017-07-22T16:16:39.080Z,7.20
2017-07-22T16:19:06.749Z,6.40
2017-07-22T16:21:34.304Z,6.33
2017-07-22T16:24:01.972Z,7.37
2017-07-22T16:26:29.626Z,5.93
2017-07-22T16:28:57.196Z,5.57
2017-07-22T16:31:24.774Z,4.93
2017-07-22T16:33:53.125Z,5.20
2017-07-22T16:36:20.675Z,5.20
2017-07-22T16:38:48.227Z,5.23
2017-07-22T16:41:15.810Z,4.60
2017-07-22T16:43:43.394Z,5.13
2017-07-22T16:46:11.747Z,4.70
2017-07-22T16:48:39.398Z,5.00
2017-07-22T16:51:06.955Z,4.67
2017-07-22T16:53:34.505Z,5.53
2017-07-22T16:56:02.288Z,4.97
2017-07-22T16:58:29.837Z,5.00
2017-07-22T17:00:57.402Z,6.00
2017-07-22T17:03:24.953Z,4.70
2017-07-22T17:05:52.531Z,5.20
2017-07-22T17:08:20.178Z,4.50
2017-07-22T17:10:47.850Z,4.50
2017-07-22T17:13:15.516Z,5.73
2017-07-22T17:15:43.070Z,6.00
2017-07-22T17:18:10.613Z,5.23
2017-07-22T17:20:38.295Z,4.77
2017-07-22T17:23:05.858Z,5.90
2017-07-22T17:25:33.506Z,5.37
2017-07-22T17:28:01.467Z,6.00
2017-07-22T17:30:29.130Z,5.17
2017-07-22T17:32:56.710Z,5.37
2017-07-22T17:35:24.262Z,5.70
2017-07-22T17:37:51.914Z,6.87
2017-07-22T17:40:19.474Z,6.03
2017-07-22T17:42:47.053Z,7.50
2017-07-22T17:45:14.626Z,5.80
2017-07-22T17:47:42.938Z,6.60
2017-07-22T17:50:10.530Z,6.37
2017-07-22T17:52:38.090Z,5.73
2017-07-22T17:55:05.757Z,6.33
2017-07-22T17:57:33.411Z,5.97
2017-07-22T18:00:00.959Z,5.67
2017-07-22T18:02:28.531Z,6.20
2017-07-22T18:04:56.098Z,5.03
2017-07-22T18:07:23.755Z,5.50
2017-07-22T18:09:51.335Z,5.33
2017-07-22T18:12:19.670Z,5.60
2017-07-22T18:14:47.231Z,6.23
2017-07-22T18:17:14.794Z,6.37
2017-07-22T18:19:47.636Z,5.80
2017-07-22T18:22:15.506Z,5.93
2017-07-22T18:24:43.293Z,7.33
2017-07-22T18:27:10.957Z,6.37
2017-07-22T18:29:38.541Z,7.10
2017-07-22T18:32:06.201Z,6.70
2017-07-22T18:34:37.766Z,9.00
2017-07-22T18:37:05.476Z,9.27
2017-07-22T18:39:33.078Z,7.60
2017-07-22T18:42:01.624Z,7.70
2017-07-22T18:44:29.297Z,8.00
2017-07-22T18:46:56.990Z,7.30
2017-07-22T18:49:24.650Z,12.50
2017-07-22T18:51:52.312Z,10.87
2017-07-22T18:54:19.970Z,9.40
2017-07-22T18:56:47.554Z,10.43
2017-07-22T18:59:15.909Z,12.07
2017-07-22T19:01:48.080Z,13.80
2017-07-22T19:04:15.842Z,9.00
2017-07-22T19:06:43.511Z,13.57
2017-07-22T19:09:11.161Z,14.37
2017-07-22T19:11:38.826Z,14.83
2017-07-22T19:14:06.486Z,11.00
2017-07-22T19:16:34.147Z,10.77
2017-07-22T19:19:01.809Z,10.50
2017-07-22T19:21:29.570Z,11.97
2017-07-22T19:23:57.207Z,11.00
2017-07-22T19:26:24.790Z,14.17
2017-07-22T19:28:52.463Z,16.70
2017-07-22T19:31:20.015Z,11.57
2017-07-22T19:33:50.642Z,9.00
2017-07-22T19:36:18.586Z,8.83
2017-07-22T19:38:46.178Z,8.13
2017-07-22T19:41:13.906Z,8.13
2017-07-22T19:43:41.482Z,9.30
2017-07-22T19:46:09.026Z,8.60
2017-07-22T19:48:36.662Z,8.83
2017-07-22T19:51:04.678Z,8.77
2017-07-22T19:53:32.345Z,7.60
2017-07-22T19:55:59.955Z,10.63
2017-07-22T19:58:27.757Z,9.47
2017-07-22T20:00:55.338Z,10.73
2017-07-22T20:03:25.933Z,11.30
2017-07-22T20:05:54.556Z,10.33
2017-07-22T20:08:22.118Z,10.30
2017-07-22T20:10:49.674Z,9.57
2017-07-22T20:13:17.239Z,10.40
2017-07-22T20:15:45.606Z,10.80
2017-07-22T20:18:13.314Z,10.30
2017-07-22T20:20:41.175Z,9.87
2017-07-22T20:23:08.863Z,9.20
2017-07-22T20:25:36.579Z,9.90
2017-07-22T20:28:04.218Z,10.50
2017-07-22T20:30:31.878Z,9.83
2017-07-22T20:32:59.443Z,12.00
2017-07-22T20:35:27.042Z,10.47
2017-07-22T20:37:54.658Z,10.57
2017-07-22T20:40:22.317Z,9.53
2017-07-22T20:42:49.980Z,10.33
2017-07-22T20:45:17.642Z,10.73
2017-07-22T20:47:45.303Z,10.57
2017-07-22T20:50:12.858Z,11.63
2017-07-22T20:52:40.524Z,10.93
2017-07-22T20:55:08.289Z,10.53
2017-07-22T20:57:35.838Z,11.30
2017-07-22T21:00:03.394Z,10.90
2017-07-22T21:02:30.955Z,11.87
2017-07-22T21:04:58.528Z,10.83
2017-07-22T21:07:26.118Z,10.47
2017-07-22T21:09:53.741Z,11.60
2017-07-22T21:12:21.294Z,11.03
2017-07-22T21:14:48.850Z,11.00
2017-07-22T21:17:16.428Z,10.77
2017-07-22T21:19:44.085Z,11.67
2017-07-22T21:22:11.645Z,10.57
2017-07-22T21:24:39.204Z,10.60
2017-07-22T21:27:06.761Z,11.30
2017-07-22T21:29:34.424Z,11.50
2017-07-22T21:32:02.010Z,11.47
2017-07-22T21:34:29.559Z,12.83
2017-07-22T21:36:57.922Z,12.67
2017-07-22T21:39:25.480Z,12.63
2017-07-22T21:41:53.034Z,13.30
2017-07-22T21:44:20.768Z,13.03
2017-07-22T21:46:48.362Z,13.57
2017-07-22T21:49:16.024Z,14.30
2017-07-22T21:51:43.689Z,15.63
2017-07-22T21:54:11.246Z,13.90
2017-07-22T21:56:38.902Z,14.07
2017-07-22T21:59:06.565Z,14.70
2017-07-22T22:01:34.222Z,13.70
2017-07-22T22:04:02.578Z,13.60
2017-07-22T22:06:30.139Z,11.93
2017-07-22T22:08:57.822Z,12.90
2017-07-22T22:11:25.485Z,11.50
2017-07-22T22:13:53.152Z,11.27
2017-07-22T22:16:20.811Z,13.10
2017-07-22T22:18:48.467Z,10.80
2017-07-22T22:21:16.054Z,11.27
2017-07-22T22:23:44.413Z,11.20
2017-07-22T22:26:11.973Z,12.00
2017-07-22T22:28:39.626Z,10.17
2017-07-22T22:31:07.177Z,11.07
2017-07-22T22:33:34.846Z,10.40
2017-07-22T22:36:02.394Z,9.80
2017-07-22T22:38:29.962Z,10.30
2017-07-22T22:40:57.622Z,10.00
2017-07-22T22:43:25.174Z,9.27
2017-07-22T22:45:52.842Z,8.93
2017-07-22T22:48:20.506Z,10.40
2017-07-22T22:50:48.161Z,9.27
2017-07-22T22:53:15.730Z,9.70
2017-07-22T22:55:43.298Z,9.70
2017-07-22T22:58:10.882Z,9.23
2017-07-22T23:00:39.226Z,9.10
2017-07-22T23:03:06.887Z,9.63
2017-07-22T23:05:34.546Z,9.60
2017-07-22T23:08:02.209Z,10.10
2017-07-22T23:10:29.866Z,9.80
2017-07-22T23:12:57.426Z,8.87
2017-07-22T23:15:24.980Z,9.43
2017-07-22T23:17:52.555Z,9.60
2017-07-22T23:20:20.202Z,8.63
2017-07-22T23:22:47.866Z,10.67
2017-07-22T23:25:15.431Z,8.93
2017-07-22T23:27:42.974Z,9.03
2017-07-22T23:30:10.527Z,9.97
2017-07-22T23:32:38.106Z,9.20
2017-07-22T23:35:05.687Z,9.30
2017-07-22T23:37:34.044Z,10.27
2017-07-22T23:40:01.704Z,9.73
2017-07-22T23:42:29.258Z,9.33
2017-07-22T23:44:56.806Z,9.80
2017-07-22T23:47:24.483Z,9.90
2017-07-22T23:49:52.030Z,9.73
2017-07-22T23:52:19.607Z,9.30
2017-07-22T23:54:47.263Z,10.73
2017-07-22T23:57:14.926Z,9.50
2017-07-22T23:59:42.502Z,10.23
